sensor_id;sensor_type;location;lat;lon;timestamp;temperature;humidity
9820;DHT22;4949;48.482;9.206;2022-10-16T00:01:30;17.30;73.10
9820;DHT22;4949;48.482;9.206;2022-10-16T00:06:33;17.20;73.30
9820;DHT22;4949;48.482;9.206;2022-10-16T00:11:37;17.20;73.60
9820;DHT22;4949;48.482;9.206;2022-10-16T00:16:41;17.10;73.60
9820;DHT22;4949;48.482;9.206;2022-10-16T00:21:44;17.10;73.80
9820;DHT22;4949;48.482;9.206;2022-10-16T00:26:45;17.00;73.80
9820;DHT22;4949;48.482;9.206;2022-10-16T00:31:54;17.00;73.90
9820;DHT22;4949;48.482;9.206;2022-10-16T00:36:57;17.00;74.00
9820;DHT22;4949;48.482;9.206;2022-10-16T00:41:57;16.90;74.20
9820;DHT22;4949;48.482;9.206;2022-10-16T00:47:01;16.80;74.30
9820;DHT22;4949;48.482;9.206;2022-10-16T00:52:01;16.80;74.40
9820;DHT22;4949;48.482;9.206;2022-10-16T00:57:05;16.80;74.80
9820;DHT22;4949;48.482;9.206;2022-10-16T01:02:10;16.80;74.30
9820;DHT22;4949;48.482;9.206;2022-10-16T01:13:06;16.80;74.10
9820;DHT22;4949;48.482;9.206;2022-10-16T01:28:39;16.80;74.70
9820;DHT22;4949;48.482;9.206;2022-10-16T01:34:16;16.70;74.90
9820;DHT22;4949;48.482;9.206;2022-10-16T01:39:25;16.70;75.10
9820;DHT22;4949;48.482;9.206;2022-10-16T01:44:32;16.80;74.70
9820;DHT22;4949;48.482;9.206;2022-10-16T01:49:36;16.80;74.80
9820;DHT22;4949;48.482;9.206;2022-10-16T01:54:43;16.70;75.00
9820;DHT22;4949;48.482;9.206;2022-10-16T01:59:52;16.70;76.00
9820;DHT22;4949;48.482;9.206;2022-10-16T02:05:12;16.60;76.70
9820;DHT22;4949;48.482;9.206;2022-10-16T02:10:17;16.50;77.20
9820;DHT22;4949;48.482;9.206;2022-10-16T02:15:19;16.50;77.40
9820;DHT22;4949;48.482;9.206;2022-10-16T02:20:27;16.50;77.10
9820;DHT22;4949;48.482;9.206;2022-10-16T02:25:34;16.50;76.90
9820;DHT22;4949;48.482;9.206;2022-10-16T02:30:41;16.50;76.40
9820;DHT22;4949;48.482;9.206;2022-10-16T02:35:46;16.70;76.50
9820;DHT22;4949;48.482;9.206;2022-10-16T02:40:51;16.60;76.50
9820;DHT22;4949;48.482;9.206;2022-10-16T02:45:55;16.60;76.40
9820;DHT22;4949;48.482;9.206;2022-10-16T02:50:56;16.60;77.10
9820;DHT22;4949;48.482;9.206;2022-10-16T02:55:59;16.60;76.90
9820;DHT22;4949;48.482;9.206;2022-10-16T03:01:03;16.60;76.80
9820;DHT22;4949;48.482;9.206;2022-10-16T03:06:06;16.60;76.90
9820;DHT22;4949;48.482;9.206;2022-10-16T03:11:09;16.50;77.20
9820;DHT22;4949;48.482;9.206;2022-10-16T03:16:12;16.50;77.50
9820;DHT22;4949;48.482;9.206;2022-10-16T03:21:12;16.50;77.00
9820;DHT22;4949;48.482;9.206;2022-10-16T03:26:13;16.30;78.60
9820;DHT22;4949;48.482;9.206;2022-10-16T03:31:14;16.20;79.30
9820;DHT22;4949;48.482;9.206;2022-10-16T03:36:15;16.20;79.30
9820;DHT22;4949;48.482;9.206;2022-10-16T03:41:16;16.20;79.20
9820;DHT22;4949;48.482;9.206;2022-10-16T03:46:18;16.30;78.80
9820;DHT22;4949;48.482;9.206;2022-10-16T03:51:22;16.30;79.10
9820;DHT22;4949;48.482;9.206;2022-10-16T03:56:27;16.20;79.80
9820;DHT22;4949;48.482;9.206;2022-10-16T04:01:28;16.00;80.40
9820;DHT22;4949;48.482;9.206;2022-10-16T04:06:28;16.00;80.80
9820;DHT22;4949;48.482;9.206;2022-10-16T04:11:32;15.90;81.20
9820;DHT22;4949;48.482;9.206;2022-10-16T04:16:35;15.90;80.90
9820;DHT22;4949;48.482;9.206;2022-10-16T04:21:36;16.00;80.30
9820;DHT22;4949;48.482;9.206;2022-10-16T04:26:39;16.00;81.20
9820;DHT22;4949;48.482;9.206;2022-10-16T04:31:40;16.00;80.40
9820;DHT22;4949;48.482;9.206;2022-10-16T04:36:43;15.90;80.90
9820;DHT22;4949;48.482;9.206;2022-10-16T04:41:44;15.90;81.00
9820;DHT22;4949;48.482;9.206;2022-10-16T04:46:45;15.80;81.40
9820;DHT22;4949;48.482;9.206;2022-10-16T04:51:46;15.70;81.80
9820;DHT22;4949;48.482;9.206;2022-10-16T04:56:46;15.70;82.40
9820;DHT22;4949;48.482;9.206;2022-10-16T05:01:51;15.80;82.70
9820;DHT22;4949;48.482;9.206;2022-10-16T05:06:52;15.80;81.80
9820;DHT22;4949;48.482;9.206;2022-10-16T05:11:53;15.70;82.40
9820;DHT22;4949;48.482;9.206;2022-10-16T05:16:56;15.60;82.70
9820;DHT22;4949;48.482;9.206;2022-10-16T05:21:57;15.60;82.80
9820;DHT22;4949;48.482;9.206;2022-10-16T05:26:57;15.60;82.90
9820;DHT22;4949;48.482;9.206;2022-10-16T05:31:58;15.50;82.90
9820;DHT22;4949;48.482;9.206;2022-10-16T05:36:59;15.50;83.00
9820;DHT22;4949;48.482;9.206;2022-10-16T05:41:59;15.50;83.10
9820;DHT22;4949;48.482;9.206;2022-10-16T05:47:00;15.50;83.10
9820;DHT22;4949;48.482;9.206;2022-10-16T05:52:01;15.60;83.30
9820;DHT22;4949;48.482;9.206;2022-10-16T05:57:04;15.40;82.90
9820;DHT22;4949;48.482;9.206;2022-10-16T06:02:12;15.50;82.70
9820;DHT22;4949;48.482;9.206;2022-10-16T06:07:13;15.50;82.70
9820;DHT22;4949;48.482;9.206;2022-10-16T06:12:19;15.50;82.40
9820;DHT22;4949;48.482;9.206;2022-10-16T06:17:22;15.40;83.30
9820;DHT22;4949;48.482;9.206;2022-10-16T06:22:23;15.30;84.00
9820;DHT22;4949;48.482;9.206;2022-10-16T06:27:26;15.30;83.90
9820;DHT22;4949;48.482;9.206;2022-10-16T06:32:29;15.60;84.20
9820;DHT22;4949;48.482;9.206;2022-10-16T06:37:30;15.40;84.00
9820;DHT22;4949;48.482;9.206;2022-10-16T06:42:34;15.50;83.90
9820;DHT22;4949;48.482;9.206;2022-10-16T06:47:34;15.50;83.60
9820;DHT22;4949;48.482;9.206;2022-10-16T06:52:35;15.50;83.70
9820;DHT22;4949;48.482;9.206;2022-10-16T06:57:36;15.60;83.20
9820;DHT22;4949;48.482;9.206;2022-10-16T07:02:37;15.70;83.30
9820;DHT22;4949;48.482;9.206;2022-10-16T07:07:40;15.80;83.20
9820;DHT22;4949;48.482;9.206;2022-10-16T07:12:40;15.90;82.90
9820;DHT22;4949;48.482;9.206;2022-10-16T07:17:41;15.90;83.20
9820;DHT22;4949;48.482;9.206;2022-10-16T07:22:45;15.90;83.20
9820;DHT22;4949;48.482;9.206;2022-10-16T07:27:48;15.90;83.20
9820;DHT22;4949;48.482;9.206;2022-10-16T07:32:51;16.00;83.20
9820;DHT22;4949;48.482;9.206;2022-10-16T07:37:52;16.10;83.00
9820;DHT22;4949;48.482;9.206;2022-10-16T07:42:57;16.10;82.80
9820;DHT22;4949;48.482;9.206;2022-10-16T07:48:02;16.20;82.40
9820;DHT22;4949;48.482;9.206;2022-10-16T07:53:03;16.30;82.40
9820;DHT22;4949;48.482;9.206;2022-10-16T07:58:06;16.40;82.30
9820;DHT22;4949;48.482;9.206;2022-10-16T08:03:08;16.50;81.50
9820;DHT22;4949;48.482;9.206;2022-10-16T08:08:13;16.50;80.80
9820;DHT22;4949;48.482;9.206;2022-10-16T08:13:17;16.60;80.90
9820;DHT22;4949;48.482;9.206;2022-10-16T08:18:19;16.70;80.50
9820;DHT22;4949;48.482;9.206;2022-10-16T08:23:20;16.80;80.30
9820;DHT22;4949;48.482;9.206;2022-10-16T08:28:22;17.00;80.30
9820;DHT22;4949;48.482;9.206;2022-10-16T08:33:25;17.10;80.10
9820;DHT22;4949;48.482;9.206;2022-10-16T08:38:26;17.20;80.10
9820;DHT22;4949;48.482;9.206;2022-10-16T08:43:55;17.30;79.60
9820;DHT22;4949;48.482;9.206;2022-10-16T08:49:06;17.40;79.30
9820;DHT22;4949;48.482;9.206;2022-10-16T08:59:26;17.70;78.30
9820;DHT22;4949;48.482;9.206;2022-10-16T09:26:05;18.60;72.30
9820;DHT22;4949;48.482;9.206;2022-10-16T09:31:19;18.90;70.40
9820;DHT22;4949;48.482;9.206;2022-10-16T09:36:23;19.00;70.00
9820;DHT22;4949;48.482;9.206;2022-10-16T09:41:26;19.20;69.40
9820;DHT22;4949;48.482;9.206;2022-10-16T09:46:35;19.30;67.40
9820;DHT22;4949;48.482;9.206;2022-10-16T09:51:38;19.50;67.00
9820;DHT22;4949;48.482;9.206;2022-10-16T09:56:41;19.60;66.40
9820;DHT22;4949;48.482;9.206;2022-10-16T10:01:51;19.80;65.90
9820;DHT22;4949;48.482;9.206;2022-10-16T10:06:54;19.80;65.40
9820;DHT22;4949;48.482;9.206;2022-10-16T10:11:59;20.00;65.40
9820;DHT22;4949;48.482;9.206;2022-10-16T10:38:39;20.80;62.00
9820;DHT22;4949;48.482;9.206;2022-10-16T11:00:30;22.90;54.00
9820;DHT22;4949;48.482;9.206;2022-10-16T11:10:53;24.10;50.20
9820;DHT22;4949;48.482;9.206;2022-10-16T11:15:59;24.40;47.30
9820;DHT22;4949;48.482;9.206;2022-10-16T11:21:07;24.60;46.00
9820;DHT22;4949;48.482;9.206;2022-10-16T11:26:25;24.80;44.80
9820;DHT22;4949;48.482;9.206;2022-10-16T11:37:14;25.20;43.90
9820;DHT22;4949;48.482;9.206;2022-10-16T11:42:30;25.20;43.20
9820;DHT22;4949;48.482;9.206;2022-10-16T11:47:45;25.20;44.30
9820;DHT22;4949;48.482;9.206;2022-10-16T11:53:20;25.40;43.20
9820;DHT22;4949;48.482;9.206;2022-10-16T12:04:21;26.00;42.70
9820;DHT22;4949;48.482;9.206;2022-10-16T12:09:31;26.20;42.80
9820;DHT22;4949;48.482;9.206;2022-10-16T12:19:34;26.50;41.70
9820;DHT22;4949;48.482;9.206;2022-10-16T12:24:41;26.50;41.60
9820;DHT22;4949;48.482;9.206;2022-10-16T12:29:45;26.40;41.90
9820;DHT22;4949;48.482;9.206;2022-10-16T12:34:47;26.40;41.80
9820;DHT22;4949;48.482;9.206;2022-10-16T12:39:49;26.30;42.50
9820;DHT22;4949;48.482;9.206;2022-10-16T12:44:50;26.30;42.70
9820;DHT22;4949;48.482;9.206;2022-10-16T12:49:54;26.40;42.50
9820;DHT22;4949;48.482;9.206;2022-10-16T12:54:58;26.60;42.90
9820;DHT22;4949;48.482;9.206;2022-10-16T13:27:25;27.50;41.60
9820;DHT22;4949;48.482;9.206;2022-10-16T13:32:34;27.40;41.50
9820;DHT22;4949;48.482;9.206;2022-10-16T13:37:37;27.20;42.00
9820;DHT22;4949;48.482;9.206;2022-10-16T13:42:38;27.10;42.00
9820;DHT22;4949;48.482;9.206;2022-10-16T13:47:38;26.60;43.50
9820;DHT22;4949;48.482;9.206;2022-10-16T13:52:39;26.60;43.60
9820;DHT22;4949;48.482;9.206;2022-10-16T13:57:41;26.90;43.10
9820;DHT22;4949;48.482;9.206;2022-10-16T14:02:55;26.80;43.10
9820;DHT22;4949;48.482;9.206;2022-10-16T14:07:59;26.80;43.30
9820;DHT22;4949;48.482;9.206;2022-10-16T14:13:05;26.80;43.70
9820;DHT22;4949;48.482;9.206;2022-10-16T14:18:06;26.60;43.60
9820;DHT22;4949;48.482;9.206;2022-10-16T14:23:30;26.50;43.60
9820;DHT22;4949;48.482;9.206;2022-10-16T14:28:34;26.20;43.60
9820;DHT22;4949;48.482;9.206;2022-10-16T14:33:36;26.10;44.00
9820;DHT22;4949;48.482;9.206;2022-10-16T14:38:48;25.90;45.20
9820;DHT22;4949;48.482;9.206;2022-10-16T14:44:03;25.80;45.70
9820;DHT22;4949;48.482;9.206;2022-10-16T14:54:15;25.80;45.50
9820;DHT22;4949;48.482;9.206;2022-10-16T14:59:27;25.80;46.50
9820;DHT22;4949;48.482;9.206;2022-10-16T15:04:30;25.60;48.30
9820;DHT22;4949;48.482;9.206;2022-10-16T15:09:33;25.70;49.20
9820;DHT22;4949;48.482;9.206;2022-10-16T15:14:37;25.90;49.10
9820;DHT22;4949;48.482;9.206;2022-10-16T15:19:37;25.70;49.00
9820;DHT22;4949;48.482;9.206;2022-10-16T15:24:38;25.40;49.40
9820;DHT22;4949;48.482;9.206;2022-10-16T15:29:39;25.30;49.80
9820;DHT22;4949;48.482;9.206;2022-10-16T15:34:42;25.20;50.80
9820;DHT22;4949;48.482;9.206;2022-10-16T15:39:43;25.10;51.40
9820;DHT22;4949;48.482;9.206;2022-10-16T15:44:46;24.90;51.80
9820;DHT22;4949;48.482;9.206;2022-10-16T15:49:47;24.80;52.30
9820;DHT22;4949;48.482;9.206;2022-10-16T15:54:47;24.60;52.40
9820;DHT22;4949;48.482;9.206;2022-10-16T15:59:48;24.50;52.40
9820;DHT22;4949;48.482;9.206;2022-10-16T16:04:49;24.30;52.80
9820;DHT22;4949;48.482;9.206;2022-10-16T16:09:49;24.20;53.50
9820;DHT22;4949;48.482;9.206;2022-10-16T16:14:52;23.90;54.60
9820;DHT22;4949;48.482;9.206;2022-10-16T16:19:53;23.70;55.00
9820;DHT22;4949;48.482;9.206;2022-10-16T16:24:54;23.50;55.50
9820;DHT22;4949;48.482;9.206;2022-10-16T16:30:02;23.40;55.90
9820;DHT22;4949;48.482;9.206;2022-10-16T16:35:04;23.20;56.20
9820;DHT22;4949;48.482;9.206;2022-10-16T16:40:05;23.00;56.50
9820;DHT22;4949;48.482;9.206;2022-10-16T16:45:09;22.80;56.80
9820;DHT22;4949;48.482;9.206;2022-10-16T16:50:09;22.60;57.00
9820;DHT22;4949;48.482;9.206;2022-10-16T16:55:12;22.50;57.40
9820;DHT22;4949;48.482;9.206;2022-10-16T17:00:13;22.20;57.40
9820;DHT22;4949;48.482;9.206;2022-10-16T17:05:15;22.00;57.80
9820;DHT22;4949;48.482;9.206;2022-10-16T17:10:18;21.80;58.60
9820;DHT22;4949;48.482;9.206;2022-10-16T17:15:19;21.50;58.20
9820;DHT22;4949;48.482;9.206;2022-10-16T17:20:19;21.40;58.70
9820;DHT22;4949;48.482;9.206;2022-10-16T17:25:20;21.20;58.60
9820;DHT22;4949;48.482;9.206;2022-10-16T17:30:23;21.10;59.20
9820;DHT22;4949;48.482;9.206;2022-10-16T17:35:27;21.00;59.80
9820;DHT22;4949;48.482;9.206;2022-10-16T17:40:28;20.70;60.50
9820;DHT22;4949;48.482;9.206;2022-10-16T17:45:28;20.60;60.80
9820;DHT22;4949;48.482;9.206;2022-10-16T17:50:30;20.50;61.00
9820;DHT22;4949;48.482;9.206;2022-10-16T17:55:39;20.40;61.70
9820;DHT22;4949;48.482;9.206;2022-10-16T18:00:43;20.40;62.50
9820;DHT22;4949;48.482;9.206;2022-10-16T18:05:43;20.30;62.90
9820;DHT22;4949;48.482;9.206;2022-10-16T18:10:45;20.20;63.50
9820;DHT22;4949;48.482;9.206;2022-10-16T18:15:46;20.00;63.90
9820;DHT22;4949;48.482;9.206;2022-10-16T18:20:55;20.00;64.10
9820;DHT22;4949;48.482;9.206;2022-10-16T18:25:57;19.90;64.30
9820;DHT22;4949;48.482;9.206;2022-10-16T18:31:00;19.80;64.50
9820;DHT22;4949;48.482;9.206;2022-10-16T18:36:07;19.80;64.50
9820;DHT22;4949;48.482;9.206;2022-10-16T18:41:13;19.80;64.80
9820;DHT22;4949;48.482;9.206;2022-10-16T18:46:19;19.70;64.80
9820;DHT22;4949;48.482;9.206;2022-10-16T18:51:29;19.50;64.80
9820;DHT22;4949;48.482;9.206;2022-10-16T18:56:34;19.50;64.90
9820;DHT22;4949;48.482;9.206;2022-10-16T19:01:37;19.50;64.70
9820;DHT22;4949;48.482;9.206;2022-10-16T19:06:41;19.50;64.70
9820;DHT22;4949;48.482;9.206;2022-10-16T19:11:43;19.50;64.20
9820;DHT22;4949;48.482;9.206;2022-10-16T19:16:46;19.50;64.40
9820;DHT22;4949;48.482;9.206;2022-10-16T19:21:48;19.40;64.50
9820;DHT22;4949;48.482;9.206;2022-10-16T19:26:55;19.40;64.60
9820;DHT22;4949;48.482;9.206;2022-10-16T19:31:57;19.40;64.40
9820;DHT22;4949;48.482;9.206;2022-10-16T19:37:01;19.30;64.90
9820;DHT22;4949;48.482;9.206;2022-10-16T19:42:01;19.20;64.70
9820;DHT22;4949;48.482;9.206;2022-10-16T19:47:02;19.20;64.80
9820;DHT22;4949;48.482;9.206;2022-10-16T19:52:05;19.10;64.90
9820;DHT22;4949;48.482;9.206;2022-10-16T19:57:06;19.10;65.10
9820;DHT22;4949;48.482;9.206;2022-10-16T20:02:09;19.10;65.20
9820;DHT22;4949;48.482;9.206;2022-10-16T20:07:10;19.00;65.00
9820;DHT22;4949;48.482;9.206;2022-10-16T20:12:10;19.10;64.90
9820;DHT22;4949;48.482;9.206;2022-10-16T20:17:14;19.00;65.30
9820;DHT22;4949;48.482;9.206;2022-10-16T20:22:15;18.90;65.60
9820;DHT22;4949;48.482;9.206;2022-10-16T20:27:15;18.90;65.80
9820;DHT22;4949;48.482;9.206;2022-10-16T20:32:16;18.80;65.60
9820;DHT22;4949;48.482;9.206;2022-10-16T20:37:17;18.90;65.70
9820;DHT22;4949;48.482;9.206;2022-10-16T20:42:18;18.80;65.10
9820;DHT22;4949;48.482;9.206;2022-10-16T20:47:19;18.80;65.80
9820;DHT22;4949;48.482;9.206;2022-10-16T20:52:19;18.70;65.00
9820;DHT22;4949;48.482;9.206;2022-10-16T20:57:20;18.70;65.00
9820;DHT22;4949;48.482;9.206;2022-10-16T21:02:21;18.70;64.60
9820;DHT22;4949;48.482;9.206;2022-10-16T21:07:26;18.80;64.90
9820;DHT22;4949;48.482;9.206;2022-10-16T21:12:29;18.70;64.20
9820;DHT22;4949;48.482;9.206;2022-10-16T21:17:35;18.80;63.50
9820;DHT22;4949;48.482;9.206;2022-10-16T21:22:36;18.80;63.00
9820;DHT22;4949;48.482;9.206;2022-10-16T21:27:38;18.80;63.20
9820;DHT22;4949;48.482;9.206;2022-10-16T21:32:40;18.90;63.70
9820;DHT22;4949;48.482;9.206;2022-10-16T21:37:40;18.70;65.00
9820;DHT22;4949;48.482;9.206;2022-10-16T21:42:43;18.50;66.20
9820;DHT22;4949;48.482;9.206;2022-10-16T21:47:46;18.40;66.30
9820;DHT22;4949;48.482;9.206;2022-10-16T21:52:47;18.20;67.40
9820;DHT22;4949;48.482;9.206;2022-10-16T21:57:48;17.90;68.40
9820;DHT22;4949;48.482;9.206;2022-10-16T22:02:49;18.00;68.40
9820;DHT22;4949;48.482;9.206;2022-10-16T22:07:52;17.80;69.30
9820;DHT22;4949;48.482;9.206;2022-10-16T22:12:53;17.70;69.60
9820;DHT22;4949;48.482;9.206;2022-10-16T22:17:54;17.50;70.30
9820;DHT22;4949;48.482;9.206;2022-10-16T22:22:54;17.30;71.10
9820;DHT22;4949;48.482;9.206;2022-10-16T22:27:55;17.20;71.30
9820;DHT22;4949;48.482;9.206;2022-10-16T22:32:58;17.10;71.60
9820;DHT22;4949;48.482;9.206;2022-10-16T22:37:59;16.90;72.50
9820;DHT22;4949;48.482;9.206;2022-10-16T22:43:03;16.80;72.70
9820;DHT22;4949;48.482;9.206;2022-10-16T22:48:07;16.70;73.00
9820;DHT22;4949;48.482;9.206;2022-10-16T22:53:07;16.60;73.60
9820;DHT22;4949;48.482;9.206;2022-10-16T22:58:08;16.50;73.70
9820;DHT22;4949;48.482;9.206;2022-10-16T23:03:09;16.40;73.90
9820;DHT22;4949;48.482;9.206;2022-10-16T23:08:11;16.30;74.10
9820;DHT22;4949;48.482;9.206;2022-10-16T23:13:15;16.30;74.80
9820;DHT22;4949;48.482;9.206;2022-10-16T23:18:16;16.10;74.40
9820;DHT22;4949;48.482;9.206;2022-10-16T23:23:16;16.00;74.60
9820;DHT22;4949;48.482;9.206;2022-10-16T23:28:20;16.00;74.80
9820;DHT22;4949;48.482;9.206;2022-10-16T23:33:20;15.90;75.00
9820;DHT22;4949;48.482;9.206;2022-10-16T23:38:21;16.00;76.40
9820;DHT22;4949;48.482;9.206;2022-10-16T23:43:27;15.70;75.70
9820;DHT22;4949;48.482;9.206;2022-10-16T23:48:28;15.70;75.90
9820;DHT22;4949;48.482;9.206;2022-10-16T23:53:34;15.60;75.90
9820;DHT22;4949;48.482;9.206;2022-10-16T23:58:36;15.50;76.10
